Burry Port, United Kingdom
Current Conditions -  °F | °C
As of 11:50 AM on Sunday 23 Nov 2014 (Local Time) from EGOP Reporting Station
Clear Clear  
Wind Chill:   Ceiling: Unl
Heat Index:   Visibility: 6mi
Dew Point:   Wind: 8mph
Humidity: 82%   Direction: 350°N
Pressure: 30.09"   Gusts: NA
Location:  51.68°N, 4.25°W
Report Text: EGOP 231150Z AUTO 35007KT 9999 // NCD 09/06 Q1019
Loading
Personal Weather Stations






























Interactive Weather Map New forecast layout! Learn more

10-Day Weather Forecast

Advertisements
Track Severe Weather on mobile